Taua, Brazil
Current Conditions -  °F | °C
As of 5:00 PM on Thursday 23 Oct 2014 (Local Time) from SBJU Reporting Station
Few Clouds Few Clouds  
Wind Chill: 93°   Ceiling: Unl
Heat Index: 93°   Visibility: 6mi
Dew Point: 61°   Wind: 6mph
Humidity: 34%   Direction: 200°SSW
Pressure: 29.94"   Gusts: NA
Location:  6°S, 40.29°W
Report Text: SBJU 232000Z 20005KT 9999 FEW023 34/16 Q1014
Loading
Personal Weather Stations






























Interactive Weather Map
Tropical Storm Tracking
New forecast layout! Learn more

10-Day Weather Forecast

Advertisements
Track Severe Weather on mobile